< Typhoon 200907 2009 Season Typhoon 200909 >
Typhoon 200908 (MORAKOT)
General InformationTrack Information on Google MapsDetailed Wind InformationAccess Analytics MapList of All Images || NewsDisaster Info.WeblogTrackbackTyphoon FrontTyphoon ImaginationResourceGoogle EarthGE AnimationAtom FeedGeoJSON
Detalied Best Track (Time Zone = UTC)
Year Month Day Hour Lat. Long. Pressure (hPa) Wind (kt) Class Image Chart
2009 8 2 18 20.1 133.4 994 0 2 Image Chart
2009 8 3 00 20.3 133.8 992 35 3 Image Chart
2009 8 3 06 20.4 134.4 992 35 3 Image Chart
2009 8 3 12 20.6 134.9 990 40 3 Image Chart
2009 8 3 18 21.2 135.5 985 45 3 Image Chart
2009 8 4 00 21.7 135.9 985 45 3 Image Chart
2009 8 4 06 22.2 135.4 985 45 3 Image Chart
2009 8 4 12 22.3 134.6 980 50 4 Image Chart
2009 8 4 18 22.5 134.1 975 55 4 Image Chart
2009 8 5 00 22.6 133.3 975 60 4 Image Chart
2009 8 5 06 22.8 132.1 970 60 4 Image Chart
2009 8 5 12 22.9 130.8 970 60 4 Image Chart
2009 8 5 18 23.1 129.3 965 65 5 Image Chart
2009 8 6 00 23.0 127.8 965 65 5 Image Chart
2009 8 6 03 23.1 127.2 960 65 5 Image Chart
2009 8 6 06 23.1 126.6 960 65 5 Image Chart
2009 8 6 09 23.2 126.1 955 70 5 Image Chart
2009 8 6 12 23.4 125.4 950 70 5 Image Chart
2009 8 6 15 23.4 124.6 945 75 5 Image Chart
2009 8 6 18 23.4 124.0 945 75 5 Image Chart
2009 8 6 21 23.4 123.7 945 75 5 Image Chart
2009 8 7 00 23.5 123.1 945 75 5 Image Chart
2009 8 7 03 23.4 122.7 950 70 5 Image Chart
2009 8 7 06 23.4 122.3 950 70 5 Image Chart
2009 8 7 09 23.4 122.1 950 70 5 Image Chart
2009 8 7 12 23.5 121.9 950 70 5 Image Chart
2009 8 7 18 23.8 121.2 960 65 5 Image Chart
2009 8 8 00 24.5 120.7 970 60 4 Image Chart
2009 8 8 06 24.6 120.5 970 60 4 Image Chart
2009 8 8 12 24.7 120.3 970 60 4 Image Chart
2009 8 8 18 24.9 120.1 975 60 4 Image Chart
2009 8 9 00 25.7 120.3 975 60 4 Image Chart
2009 8 9 06 26.2 120.1 975 60 4 Image Chart
2009 8 9 12 26.7 119.8 980 50 4 Image Chart
2009 8 9 18 27.2 119.5 985 45 3 Image Chart
2009 8 10 00 28.2 119.6 990 40 3 Image Chart
2009 8 10 06 29.0 119.7 992 35 3 Image Chart
2009 8 10 12 30.3 120.3 994 35 3 Image Chart
2009 8 10 18 31.0 120.5 996 0 2 Image Chart
2009 8 11 00 31.9 120.8 998 0 2 Image Chart
2009 8 11 06 32.8 121.4 998 0 2 Image Chart
2009 8 11 12 34.0 122.7 998 0 2 Image Chart
2009 8 11 18 35.5 124.3 998 0 6 Image Chart
2009 8 12 00 36.7 126.1 998 0 6 Image Chart
Japan Meteorological Agency Best Track Data | Correction Date : 2009-10-02
< Typhoon 200907 2009 Season Typhoon 200909 >

Help